Time;durP1;ratioP1;P1;durP2;ratioP2;P2;SDS_P1;SDS_P2;PMS_P1;PMS_P2;Temp;Humidity;BMP_temperature;BMP_pressure;BME280_temperature;BME280_humidity;BME280_pressure;Samples;Min_cycle;Max_cycle;Signal;HPM_P1;HPM_P2
2023/09/07 00:02:04;;;;;;;;;;;19.60;99.90;;;;;;7322102;19;11080;-71
2023/09/07 00:04:33;;;;;;;;;;;19.60;99.90;;;;;;7319103;19;9462;-71
2023/09/07 00:07:04;;;;;;;;;;;19.50;99.90;;;;;;7321046;19;12281;-71
2023/09/07 00:09:36;;;;;;;;;;;19.40;99.90;;;;;;7320163;19;9631;-71
2023/09/07 00:12:06;;;;;;;;;;;19.40;99.90;;;;;;7316593;19;9289;-71
2023/09/07 00:14:35;;;;;;;;;;;19.40;99.90;;;;;;7320616;19;9438;-71
2023/09/07 00:17:04;;;;;;;;;;;19.30;99.90;;;;;;7319963;19;10054;-71
2023/09/07 00:19:36;;;;;;;;;;;19.20;99.90;;;;;;7320050;19;9241;-71
2023/09/07 00:22:06;;;;;;;;;;;19.20;99.90;;;;;;7320326;19;11069;-70
2023/09/07 00:24:37;;;;;;;;;;;19.30;99.90;;;;;;7319753;19;9380;-71
2023/09/07 00:27:07;;;;;;;;;;;19.30;99.90;;;;;;7316922;19;9704;-71
2023/09/07 00:29:37;;;;;;;;;;;19.40;99.90;;;;;;7317023;19;9716;-70
2023/09/07 00:32:07;;;;;;;;;;;19.20;99.90;;;;;;7320406;19;9237;-70
2023/09/07 00:34:36;;;;;;;;;;;19.20;99.90;;;;;;7315832;19;9204;-71
2023/09/07 00:37:05;;;;;;;;;;;19.20;99.90;;;;;;7318085;19;9563;-70
2023/09/07 00:39:37;;;;;;;;;;;19.20;99.90;;;;;;7320608;19;9435;-70
2023/09/07 00:42:07;;;;;;;;;;;19.10;99.90;;;;;;7318350;19;9591;-71
2023/09/07 00:44:35;;;;;;;;;;;19.10;99.90;;;;;;7319331;19;10732;-70
2023/09/07 00:47:06;;;;;;;;;;;19.10;99.90;;;;;;7318363;19;9252;-71
2023/09/07 00:49:55;;;;;;;;;;;19.10;99.90;;;;;;7320087;19;9474;-71
2023/09/07 00:52:24;;;;;;;;;;;19.00;99.90;;;;;;7317061;19;9434;-71
2023/09/07 00:54:56;;;;;;;;;;;19.00;99.90;;;;;;7320701;19;8952;-70
2023/09/07 00:57:25;;;;;;;;;;;18.90;99.90;;;;;;7319095;19;9494;-70
2023/09/07 00:59:55;;;;;;;;;;;18.90;99.90;;;;;;7319520;19;9113;-71
2023/09/07 01:02:44;;;;;;;;;;;18.90;99.90;;;;;;7316795;19;10170;-70
2023/09/07 01:05:14;;;;;;;;;;;18.90;99.90;;;;;;7317386;19;9617;-70
2023/09/07 01:07:50;;;;;;;;;;;18.90;99.90;;;;;;7317739;19;9439;-71
2023/09/07 01:10:22;;;;;;;;;;;18.90;99.90;;;;;;7316757;19;9238;-71
2023/09/07 01:12:51;;;;;;;;;;;18.90;99.90;;;;;;7319172;19;9318;-71
2023/09/07 01:15:20;;;;;;;;;;;18.70;99.90;;;;;;7320710;19;9214;-70
2023/09/07 01:17:50;;;;;;;;;;;18.70;99.90;;;;;;7318538;19;9548;-71
2023/09/07 01:20:21;;;;;;;;;;;18.70;99.90;;;;;;7320073;19;9095;-71
2023/09/07 01:22:53;;;;;;;;;;;18.80;99.90;;;;;;7317016;19;9246;-71
2023/09/07 01:25:23;;;;;;;;;;;18.80;99.90;;;;;;7318358;19;9266;-71
2023/09/07 01:27:53;;;;;;;;;;;18.70;99.90;;;;;;7317865;19;9414;-70
2023/09/07 01:30:22;;;;;;;;;;;18.70;99.90;;;;;;7316140;19;9581;-71
2023/09/07 01:32:51;;;;;;;;;;;18.70;99.90;;;;;;7315891;19;9241;-70
2023/09/07 01:35:22;;;;;;;;;;;18.70;99.90;;;;;;7319330;19;9253;-71
2023/09/07 01:37:54;;;;;;;;;;;18.60;99.90;;;;;;7315921;19;9085;-71
2023/09/07 01:40:43;;;;;;;;;;;18.60;99.90;;;;;;7314168;19;9483;-70
2023/09/07 01:43:12;;;;;;;;;;;18.60;99.90;;;;;;7318716;19;9464;-71
2023/09/07 01:45:41;;;;;;;;;;;18.60;99.90;;;;;;7318082;19;11280;-71
2023/09/07 01:48:14;;;;;;;;;;;18.50;99.90;;;;;;7314866;19;9304;-71
2023/09/07 01:50:43;;;;;;;;;;;18.50;99.90;;;;;;7316332;19;9278;-70
2023/09/07 01:53:35;;;;;;;;;;;18.50;99.90;;;;;;7314051;19;9239;-71
2023/09/07 01:56:04;;;;;;;;;;;18.40;99.90;;;;;;7316863;19;9213;-71
2023/09/07 01:58:32;;;;;;;;;;;18.40;99.90;;;;;;7317988;19;9237;-70
2023/09/07 02:01:02;;;;;;;;;;;18.50;99.90;;;;;;7318216;19;9206;-70
2023/09/07 02:03:31;;;;;;;;;;;18.40;99.90;;;;;;7314392;19;9295;-71
2023/09/07 02:06:20;;;;;;;;;;;18.30;99.90;;;;;;7314209;19;9632;-71
2023/09/07 02:08:52;;;;;;;;;;;18.20;99.90;;;;;;7312266;19;9512;-70
2023/09/07 02:11:21;;;;;;;;;;;18.20;99.90;;;;;;7309961;19;9274;-71
2023/09/07 02:13:51;;;;;;;;;;;18.10;99.90;;;;;;7315468;19;9233;-71
2023/09/07 02:16:20;;;;;;;;;;;18.10;99.90;;;;;;7318838;19;9656;-71
2023/09/07 02:18:53;;;;;;;;;;;18.20;99.90;;;;;;7313943;19;9510;-71
2023/09/07 02:21:24;;;;;;;;;;;18.20;99.90;;;;;;7322214;19;9246;-70
2023/09/07 02:23:56;;;;;;;;;;;18.20;99.90;;;;;;7322405;19;9540;-70
2023/09/07 02:26:24;;;;;;;;;;;18.10;99.90;;;;;;7321228;19;9234;-71
2023/09/07 02:28:53;;;;;;;;;;;18.20;99.90;;;;;;7323865;19;9467;-71
2023/09/07 02:31:23;;;;;;;;;;;18.20;99.90;;;;;;7320889;19;9250;-71
2023/09/07 02:33:52;;;;;;;;;;;18.10;99.90;;;;;;7320317;19;8975;-70
2023/09/07 02:36:21;;;;;;;;;;;18.10;99.90;;;;;;7312473;19;9242;-86
2023/09/07 02:38:50;;;;;;;;;;;18.00;99.90;;;;;;7321595;19;9262;-70
2023/09/07 02:41:22;;;;;;;;;;;17.90;99.90;;;;;;7317072;19;9226;-70
2023/09/07 02:43:51;;;;;;;;;;;17.90;99.90;;;;;;7323422;19;9283;-71
2023/09/07 02:46:20;;;;;;;;;;;17.90;99.90;;;;;;7321647;19;9167;-71
2023/09/07 02:48:50;;;;;;;;;;;17.80;99.90;;;;;;7320882;19;9289;-71
2023/09/07 02:51:18;;;;;;;;;;;17.70;99.90;;;;;;7321323;19;11864;-71
2023/09/07 02:53:47;;;;;;;;;;;17.70;99.90;;;;;;7323279;19;9577;-71
2023/09/07 02:56:16;;;;;;;;;;;17.60;99.90;;;;;;7322978;19;9366;-70
2023/09/07 02:58:48;;;;;;;;;;;17.70;99.90;;;;;;7321862;19;9242;-70
2023/09/07 03:01:20;;;;;;;;;;;17.60;99.90;;;;;;7322251;19;9259;-70
2023/09/07 03:03:50;;;;;;;;;;;17.50;99.90;;;;;;7321318;19;9232;-70
2023/09/07 03:06:38;;;;;;;;;;;17.40;99.90;;;;;;7321863;19;9300;-71
2023/09/07 03:09:09;;;;;;;;;;;17.60;99.90;;;;;;7317131;19;9396;-71
2023/09/07 03:11:38;;;;;;;;;;;17.70;99.90;;;;;;7317122;19;9511;-71
2023/09/07 03:14:09;;;;;;;;;;;17.70;99.90;;;;;;7321711;19;11179;-71
2023/09/07 03:16:38;;;;;;;;;;;17.70;99.90;;;;;;7316102;19;9486;-71
2023/09/07 03:19:07;;;;;;;;;;;17.80;99.90;;;;;;7320328;19;10063;-71
2023/09/07 03:21:36;;;;;;;;;;;17.80;99.90;;;;;;7319924;19;9274;-71
2023/09/07 03:24:06;;;;;;;;;;;17.80;99.90;;;;;;7318406;19;9233;-71
2023/09/07 03:26:35;;;;;;;;;;;17.80;99.90;;;;;;7320811;19;9284;-71
2023/09/07 03:29:04;;;;;;;;;;;17.70;99.90;;;;;;7317624;19;9535;-71
2023/09/07 03:31:35;;;;;;;;;;;17.70;99.90;;;;;;7322511;19;9473;-71
2023/09/07 03:34:05;;;;;;;;;;;17.80;99.90;;;;;;7320473;19;10392;-71
2023/09/07 03:36:54;;;;;;;;;;;17.70;99.90;;;;;;7316430;19;9555;-71
2023/09/07 03:39:24;;;;;;;;;;;17.50;99.90;;;;;;7311907;19;9463;-70
2023/09/07 03:41:52;;;;;;;;;;;17.40;99.90;;;;;;7320655;19;10442;-71
2023/09/07 03:44:21;;;;;;;;;;;17.40;99.90;;;;;;7318601;19;9540;-70
2023/09/07 03:46:53;;;;;;;;;;;17.20;99.90;;;;;;7320364;19;9296;-71
2023/09/07 03:49:23;;;;;;;;;;;17.10;99.90;;;;;;7319594;19;9450;-71
2023/09/07 03:51:51;;;;;;;;;;;17.00;99.90;;;;;;7321701;19;9575;-70
2023/09/07 03:54:20;;;;;;;;;;;17.00;99.90;;;;;;7322695;19;9563;-70
2023/09/07 03:56:49;;;;;;;;;;;17.00;99.90;;;;;;7321801;19;9305;-70
2023/09/07 03:59:18;;;;;;;;;;;16.90;99.90;;;;;;7321557;19;9408;-71
2023/09/07 04:01:47;;;;;;;;;;;16.90;99.90;;;;;;7321754;19;9342;-71
2023/09/07 04:04:19;;;;;;;;;;;16.90;99.90;;;;;;7318933;19;9284;-70
2023/09/07 04:06:49;;;;;;;;;;;16.80;99.90;;;;;;7320935;19;9509;-70
2023/09/07 04:09:38;;;;;;;;;;;16.80;99.90;;;;;;7312979;19;9311;-70
2023/09/07 04:12:08;;;;;;;;;;;16.70;99.90;;;;;;7321515;19;9226;-70
2023/09/07 04:14:57;;;;;;;;;;;16.70;99.90;;;;;;7319629;19;9280;-70
2023/09/07 04:17:26;;;;;;;;;;;16.70;99.90;;;;;;7319006;19;9461;-71
2023/09/07 04:20:18;;;;;;;;;;;16.80;99.90;;;;;;7312153;19;9247;-71
2023/09/07 04:22:47;;;;;;;;;;;16.80;99.90;;;;;;7316508;19;9317;-70
2023/09/07 04:25:15;;;;;;;;;;;16.80;99.90;;;;;;7319984;19;9316;-70
2023/09/07 04:27:44;;;;;;;;;;;16.80;99.90;;;;;;7315933;19;9198;-71
2023/09/07 04:30:14;;;;;;;;;;;16.80;99.90;;;;;;7318697;19;9424;-71
2023/09/07 04:32:43;;;;;;;;;;;16.80;99.90;;;;;;7318481;19;8995;-70
2023/09/07 04:35:12;;;;;;;;;;;16.80;99.90;;;;;;7320071;19;10303;-71
2023/09/07 04:37:45;;;;;;;;;;;16.80;99.90;;;;;;7315726;19;9449;-70
2023/09/07 04:40:14;;;;;;;;;;;16.80;99.90;;;;;;7304980;19;9270;-71
2023/09/07 04:42:43;;;;;;;;;;;16.80;99.90;;;;;;7313095;19;9850;-70
2023/09/07 04:45:13;;;;;;;;;;;16.80;99.90;;;;;;7315667;19;9733;-70
2023/09/07 04:47:42;;;;;;;;;;;16.80;99.90;;;;;;7319274;19;9454;-70
2023/09/07 04:50:13;;;;;;;;;;;16.80;99.90;;;;;;7316817;19;9666;-70
2023/09/07 04:52:44;;;;;;;;;;;16.90;99.90;;;;;;7315353;19;10626;-70
2023/09/07 04:55:13;;;;;;;;;;;16.80;99.90;;;;;;7315529;19;9130;-70
2023/09/07 04:57:42;;;;;;;;;;;16.90;99.90;;;;;;7314306;19;9681;-71
2023/09/07 05:00:12;;;;;;;;;;;16.90;99.90;;;;;;7310536;19;9233;-70
2023/09/07 05:02:43;;;;;;;;;;;16.90;99.90;;;;;;7314867;19;11539;-70
2023/09/07 05:05:12;;;;;;;;;;;16.90;99.90;;;;;;7319998;19;9300;-71
2023/09/07 05:07:43;;;;;;;;;;;16.80;99.90;;;;;;7314950;19;9286;-71
2023/09/07 05:10:13;;;;;;;;;;;16.90;99.90;;;;;;7309831;19;9521;-71
2023/09/07 05:12:42;;;;;;;;;;;16.90;99.90;;;;;;7317863;19;8944;-71
2023/09/07 05:15:11;;;;;;;;;;;16.90;99.90;;;;;;7319562;19;9439;-71
2023/09/07 05:18:00;;;;;;;;;;;17.00;99.90;;;;;;7317357;19;9309;-71
2023/09/07 05:20:51;;;;;;;;;;;16.90;99.90;;;;;;7316376;19;9486;-70
2023/09/07 05:23:26;;;;;;;;;;;16.90;99.90;;;;;;7317607;19;9293;-70
2023/09/07 05:25:57;;;;;;;;;;;16.90;99.90;;;;;;7318758;19;9635;-71
2023/09/07 05:28:26;;;;;;;;;;;16.90;99.90;;;;;;7319758;19;9236;-71
2023/09/07 05:30:55;;;;;;;;;;;16.80;99.90;;;;;;7317373;19;9454;-71
2023/09/07 05:33:24;;;;;;;;;;;16.80;99.90;;;;;;7319383;19;9132;-71
2023/09/07 05:35:53;;;;;;;;;;;16.80;99.90;;;;;;7317674;19;10150;-70
2023/09/07 05:38:25;;;;;;;;;;;16.80;99.90;;;;;;7310863;19;10764;-71
2023/09/07 05:40:54;;;;;;;;;;;16.70;99.90;;;;;;7317658;19;9466;-70
2023/09/07 05:43:23;;;;;;;;;;;16.80;99.90;;;;;;7317378;19;9545;-71
2023/09/07 05:45:52;;;;;;;;;;;16.80;99.90;;;;;;7319021;19;9741;-70
2023/09/07 05:48:21;;;;;;;;;;;16.90;99.90;;;;;;7318805;19;9122;-71
2023/09/07 05:50:51;;;;;;;;;;;16.80;99.90;;;;;;7320114;19;9188;-71
2023/09/07 05:53:22;;;;;;;;;;;16.90;99.90;;;;;;7323277;19;9872;-71
2023/09/07 05:55:53;;;;;;;;;;;16.80;99.90;;;;;;7324226;19;9506;-69
2023/09/07 05:58:22;;;;;;;;;;;16.80;99.90;;;;;;7325014;19;9137;-78
2023/09/07 06:00:51;;;;;;;;;;;16.80;99.90;;;;;;7325360;19;9137;-71
2023/09/07 06:03:41;;;;;;;;;;;17.00;99.90;;;;;;7318353;19;9338;-73
2023/09/07 06:06:10;;;;;;;;;;;17.20;99.90;;;;;;7322874;19;9186;-75
2023/09/07 06:08:39;;;;;;;;;;;17.10;99.90;;;;;;7322767;19;9260;-71
2023/09/07 06:11:10;;;;;;;;;;;17.10;99.90;;;;;;7317606;19;10694;-71
2023/09/07 06:13:39;;;;;;;;;;;17.20;99.90;;;;;;7317448;19;11137;-70
2023/09/07 06:16:08;;;;;;;;;;;17.30;99.90;;;;;;7320422;19;9652;-71
2023/09/07 06:18:37;;;;;;;;;;;17.30;99.90;;;;;;7321728;19;9270;-70
2023/09/07 06:21:06;;;;;;;;;;;17.40;99.90;;;;;;7321326;19;9406;-71
2023/09/07 06:23:35;;;;;;;;;;;17.40;99.90;;;;;;7320770;19;9235;-70
2023/09/07 06:26:04;;;;;;;;;;;17.50;99.90;;;;;;7314041;19;9331;-70
2023/09/07 06:28:56;;;;;;;;;;;17.50;99.90;;;;;;7320185;19;9254;-70
2023/09/07 06:31:25;;;;;;;;;;;17.60;99.90;;;;;;7322174;19;9344;-70
2023/09/07 06:33:53;;;;;;;;;;;17.70;99.90;;;;;;7322023;19;9125;-70
2023/09/07 06:36:42;;;;;;;;;;;17.80;99.90;;;;;;7319914;19;9696;-71
2023/09/07 06:39:11;;;;;;;;;;;17.90;99.90;;;;;;7319430;19;9459;-70
2023/09/07 06:41:40;;;;;;;;;;;18.00;99.90;;;;;;7324055;19;9516;-70
2023/09/07 06:44:12;;;;;;;;;;;18.20;99.90;;;;;;7318811;19;9255;-71
2023/09/07 06:46:41;;;;;;;;;;;18.20;99.90;;;;;;7317568;19;9480;-72
2023/09/07 06:49:10;;;;;;;;;;;18.30;99.90;;;;;;7316865;19;9584;-70
2023/09/07 06:51:40;;;;;;;;;;;18.40;99.90;;;;;;7319450;19;9165;-71
2023/09/07 06:54:09;;;;;;;;;;;18.50;99.90;;;;;;7316337;19;9286;-72
2023/09/07 06:56:38;;;;;;;;;;;18.60;99.90;;;;;;7322577;19;10902;-70
2023/09/07 06:59:07;;;;;;;;;;;18.60;99.90;;;;;;7327357;19;9231;-69
2023/09/07 07:01:39;;;;;;;;;;;18.70;99.90;;;;;;7322471;19;10744;-70
2023/09/07 07:04:09;;;;;;;;;;;18.80;99.90;;;;;;7323778;19;9262;-71
2023/09/07 07:06:38;;;;;;;;;;;18.90;99.90;;;;;;7321978;19;9232;-70
2023/09/07 07:09:09;;;;;;;;;;;19.10;99.90;;;;;;7318178;19;9277;-71
2023/09/07 07:11:39;;;;;;;;;;;19.40;99.90;;;;;;7321984;19;9241;-70
2023/09/07 07:14:08;;;;;;;;;;;19.70;99.90;;;;;;7320780;19;9106;-70
2023/09/07 07:16:40;;;;;;;;;;;19.70;99.90;;;;;;7320977;19;9305;-71
2023/09/07 07:19:09;;;;;;;;;;;19.80;99.90;;;;;;7322789;19;9276;-70
2023/09/07 07:21:38;;;;;;;;;;;20.00;99.90;;;;;;7320259;19;9498;-70
2023/09/07 07:24:08;;;;;;;;;;;20.30;99.90;;;;;;7317367;19;9253;-71
2023/09/07 07:26:37;;;;;;;;;;;20.50;99.90;;;;;;7317022;19;9267;-71
2023/09/07 07:29:06;;;;;;;;;;;20.80;99.90;;;;;;7322614;19;9662;-71
2023/09/07 07:31:36;;;;;;;;;;;21.20;99.90;;;;;;7319272;19;10406;-71
2023/09/07 07:34:07;;;;;;;;;;;21.40;99.90;;;;;;7317845;19;9335;-71
2023/09/07 07:36:36;;;;;;;;;;;21.60;99.90;;;;;;7319426;19;9293;-71
2023/09/07 07:39:06;;;;;;;;;;;21.70;99.90;;;;;;7320637;19;9326;-71
2023/09/07 07:41:35;;;;;;;;;;;21.80;99.90;;;;;;7321307;19;9116;-70
2023/09/07 07:44:05;;;;;;;;;;;22.00;99.90;;;;;;7318001;19;9893;-71
2023/09/07 07:46:34;;;;;;;;;;;22.10;99.90;;;;;;7317848;19;10327;-71
2023/09/07 07:49:03;;;;;;;;;;;22.20;99.90;;;;;;7322060;19;9494;-71
2023/09/07 07:51:34;;;;;;;;;;;22.30;99.90;;;;;;7318764;19;9301;-71
2023/09/07 07:54:04;;;;;;;;;;;22.40;99.90;;;;;;7320093;19;9645;-71
2023/09/07 07:56:33;;;;;;;;;;;22.60;99.90;;;;;;7318582;19;10401;-71
2023/09/07 07:59:03;;;;;;;;;;;22.60;99.90;;;;;;7318763;19;14065;-71
2023/09/07 08:01:32;;;;;;;;;;;22.70;99.90;;;;;;7318589;19;9274;-71
2023/09/07 08:04:01;;;;;;;;;;;22.70;99.90;;;;;;7320077;19;9167;-71
2023/09/07 08:06:30;;;;;;;;;;;22.60;99.90;;;;;;7321242;19;9186;-71
2023/09/07 08:09:01;;;;;;;;;;;22.50;99.90;;;;;;7318239;19;9108;-71
2023/09/07 08:11:30;;;;;;;;;;;22.70;99.90;;;;;;7314511;19;9434;-71
2023/09/07 08:14:00;;;;;;;;;;;22.70;99.10;;;;;;7320277;19;9174;-70
2023/09/07 08:16:32;;;;;;;;;;;22.60;99.90;;;;;;7320836;19;9521;-71
2023/09/07 08:19:01;;;;;;;;;;;22.50;99.90;;;;;;7317997;19;9261;-71
2023/09/07 08:21:30;;;;;;;;;;;22.50;99.90;;;;;;7320428;19;10342;-71
2023/09/07 08:24:02;;;;;;;;;;;22.50;99.90;;;;;;7322287;19;10861;-71
2023/09/07 08:26:31;;;;;;;;;;;22.70;99.90;;;;;;7314617;19;9354;-71
2023/09/07 08:29:05;;;;;;;;;;;22.70;99.50;;;;;;7318331;19;9601;-71
2023/09/07 08:31:54;;;;;;;;;;;22.70;99.80;;;;;;7320384;19;9760;-71
2023/09/07 08:34:23;;;;;;;;;;;22.80;99.20;;;;;;7320254;19;9447;-71
2023/09/07 08:36:53;;;;;;;;;;;22.90;99.30;;;;;;7317974;19;9317;-71
2023/09/07 08:39:25;;;;;;;;;;;22.90;98.70;;;;;;7316066;19;9240;-71
2023/09/07 08:41:54;;;;;;;;;;;23.00;99.00;;;;;;7318314;19;9254;-71
2023/09/07 08:44:24;;;;;;;;;;;23.10;98.40;;;;;;7320658;19;9033;-71
2023/09/07 08:46:54;;;;;;;;;;;23.10;98.20;;;;;;7317985;19;9264;-70
2023/09/07 08:49:23;;;;;;;;;;;23.20;98.70;;;;;;7320872;19;9237;-71
2023/09/07 08:51:53;;;;;;;;;;;23.40;99.00;;;;;;7319114;19;9267;-70
2023/09/07 08:54:25;;;;;;;;;;;23.50;97.90;;;;;;7308424;19;11364;-71
2023/09/07 08:56:56;;;;;;;;;;;23.50;96.50;;;;;;7316946;19;9209;-71
2023/09/07 08:59:25;;;;;;;;;;;23.70;97.00;;;;;;7314429;19;9217;-70
2023/09/07 09:01:59;;;;;;;;;;;23.80;96.50;;;;;;7316827;19;9303;-70
2023/09/07 09:04:30;;;;;;;;;;;23.90;94.70;;;;;;7316107;19;9185;-70
2023/09/07 09:07:00;;;;;;;;;;;24.00;94.10;;;;;;7316287;19;9229;-70
2023/09/07 09:09:32;;;;;;;;;;;23.90;93.30;;;;;;7315546;19;9577;-70
2023/09/07 09:12:10;;;;;;;;;;;24.00;93.20;;;;;;7318898;19;10230;-70
2023/09/07 09:14:39;;;;;;;;;;;24.10;93.30;;;;;;7315709;19;9292;-70
2023/09/07 09:17:08;;;;;;;;;;;24.30;93.70;;;;;;7312193;19;9258;-70
2023/09/07 09:19:38;;;;;;;;;;;24.40;93.20;;;;;;7319890;19;9474;-70
2023/09/07 09:22:07;;;;;;;;;;;24.40;93.40;;;;;;7319776;19;9702;-70
2023/09/07 09:24:39;;;;;;;;;;;24.50;92.80;;;;;;7314460;19;9318;-70
2023/09/07 09:27:08;;;;;;;;;;;24.50;91.00;;;;;;7321981;19;9182;-71
2023/09/07 09:29:37;;;;;;;;;;;24.60;91.10;;;;;;7324173;19;9234;-70
2023/09/07 09:32:08;;;;;;;;;;;24.70;89.20;;;;;;7325512;19;9433;-70
2023/09/07 09:34:57;;;;;;;;;;;24.70;90.40;;;;;;7320142;19;8987;-70
2023/09/07 09:37:50;;;;;;;;;;;24.90;89.40;;;;;;7320668;19;9547;-70
2023/09/07 09:40:22;;;;;;;;;;;25.10;86.90;;;;;;7322797;19;9123;-70
2023/09/07 09:42:54;;;;;;;;;;;25.10;85.00;;;;;;7322335;19;11154;-70
2023/09/07 09:45:23;;;;;;;;;;;25.20;86.60;;;;;;7323838;19;9351;-70
2023/09/07 09:48:13;;;;;;;;;;;25.30;85.70;;;;;;7318928;19;9324;-70
2023/09/07 09:50:44;;;;;;;;;;;25.50;83.50;;;;;;7322581;19;9254;-70
2023/09/07 09:53:34;;;;;;;;;;;25.60;83.00;;;;;;7319177;19;9298;-70
2023/09/07 09:56:06;;;;;;;;;;;25.70;82.00;;;;;;7315272;19;9233;-70
2023/09/07 09:58:35;;;;;;;;;;;25.80;80.80;;;;;;7316339;19;9460;-72
2023/09/07 10:01:07;;;;;;;;;;;25.80;79.30;;;;;;7310955;19;9089;-71
2023/09/07 10:03:45;;;;;;;;;;;25.90;80.70;;;;;;7322918;19;9644;-71
2023/09/07 10:06:36;;;;;;;;;;;26.00;80.20;;;;;;7321232;19;9450;-72
2023/09/07 10:09:10;;;;;;;;;;;26.10;76.80;;;;;;7318494;19;9674;-71
2023/09/07 10:11:42;;;;;;;;;;;26.20;74.50;;;;;;7323471;19;9503;-71
2023/09/07 10:14:13;;;;;;;;;;;26.30;74.00;;;;;;7324469;19;9197;-71
2023/09/07 10:16:46;;;;;;;;;;;26.40;76.30;;;;;;7324397;19;9460;-71
2023/09/07 10:19:18;;;;;;;;;;;26.40;73.80;;;;;;7321031;19;9316;-71
2023/09/07 10:21:48;;;;;;;;;;;26.40;72.80;;;;;;7321377;19;9254;-71
2023/09/07 10:24:28;;;;;;;;;;;26.50;73.30;;;;;;7319391;19;9132;-72
2023/09/07 10:27:04;;;;;;;;;;;26.60;72.20;;;;;;7323759;19;9464;-72
2023/09/07 10:29:45;;;;;;;;;;;26.70;72.50;;;;;;7320275;19;10838;-72
2023/09/07 10:32:16;;;;;;;;;;;26.70;72.60;;;;;;7320534;19;9514;-71
2023/09/07 10:34:45;;;;;;;;;;;26.70;73.20;;;;;;7322162;19;9719;-71
2023/09/07 10:37:15;;;;;;;;;;;26.70;72.60;;;;;;7320224;19;9305;-71
2023/09/07 10:39:47;;;;;;;;;;;26.70;71.20;;;;;;7322505;19;9447;-71
2023/09/07 10:42:27;;;;;;;;;;;26.70;70.20;;;;;;7316249;19;9402;-71
2023/09/07 10:44:56;;;;;;;;;;;26.70;70.60;;;;;;7322496;19;9471;-71
2023/09/07 10:47:25;;;;;;;;;;;26.80;72.10;;;;;;7321555;19;9242;-71
2023/09/07 10:49:56;;;;;;;;;;;26.90;73.20;;;;;;7321249;19;10474;-72
2023/09/07 10:52:45;;;;;;;;;;;27.00;71.80;;;;;;7320833;19;9487;-71
2023/09/07 10:55:15;;;;;;;;;;;27.00;71.70;;;;;;7320682;19;9531;-72
2023/09/07 10:57:48;;;;;;;;;;;27.10;73.80;;;;;;7321597;19;9180;-72
2023/09/07 11:00:19;;;;;;;;;;;27.10;72.00;;;;;;7321956;19;10139;-72
2023/09/07 11:02:48;;;;;;;;;;;27.20;73.30;;;;;;7321252;19;10367;-73
2023/09/07 11:05:18;;;;;;;;;;;27.20;72.40;;;;;;7321808;19;9315;-73
2023/09/07 11:07:47;;;;;;;;;;;27.20;71.90;;;;;;7322438;19;9338;-73
2023/09/07 11:10:16;;;;;;;;;;;27.20;70.20;;;;;;7320501;19;9222;-73
2023/09/07 11:12:49;;;;;;;;;;;27.30;70.00;;;;;;7321057;19;9217;-73
2023/09/07 11:15:21;;;;;;;;;;;27.30;71.60;;;;;;7322157;19;9178;-73
2023/09/07 11:17:52;;;;;;;;;;;27.30;68.30;;;;;;7318424;19;9388;-73
2023/09/07 11:20:24;;;;;;;;;;;27.30;68.10;;;;;;7320312;19;9522;-73
2023/09/07 11:23:14;;;;;;;;;;;27.30;68.30;;;;;;7318291;19;10500;-74
2023/09/07 11:25:43;;;;;;;;;;;27.30;70.00;;;;;;7319748;19;9413;-70
2023/09/07 11:28:14;;;;;;;;;;;27.40;68.90;;;;;;7311032;19;9440;-72
2023/09/07 11:30:53;;;;;;;;;;;27.40;70.30;;;;;;7319937;19;9310;-73
2023/09/07 11:33:23;;;;;;;;;;;27.40;67.70;;;;;;7316889;19;9618;-72
2023/09/07 11:35:54;;;;;;;;;;;27.50;67.70;;;;;;7319305;19;9633;-72
2023/09/07 11:38:23;;;;;;;;;;;27.60;66.70;;;;;;7319931;19;9397;-73
2023/09/07 11:40:53;;;;;;;;;;;27.60;67.20;;;;;;7319951;19;9135;-71
2023/09/07 11:43:24;;;;;;;;;;;27.60;65.50;;;;;;7320842;19;9230;-72
2023/09/07 11:45:53;;;;;;;;;;;27.70;67.20;;;;;;7317098;19;10323;-72
2023/09/07 11:48:23;;;;;;;;;;;27.70;66.20;;;;;;7312331;19;9458;-72
2023/09/07 11:50:51;;;;;;;;;;;27.80;66.50;;;;;;7311755;19;9449;-72
2023/09/07 11:53:20;;;;;;;;;;;27.80;64.90;;;;;;7318299;19;9529;-72
2023/09/07 11:55:50;;;;;;;;;;;27.80;65.20;;;;;;7317869;19;9264;-71
2023/09/07 11:58:20;;;;;;;;;;;27.90;66.30;;;;;;7319691;19;9150;-72
2023/09/07 12:00:51;;;;;;;;;;;27.80;64.40;;;;;;7321721;19;9249;-72
2023/09/07 12:03:20;;;;;;;;;;;27.80;65.00;;;;;;7322041;19;10696;-72
2023/09/07 12:05:49;;;;;;;;;;;27.80;65.20;;;;;;7321723;19;9486;-72
2023/09/07 12:08:18;;;;;;;;;;;27.80;65.50;;;;;;7317768;19;9399;-72
2023/09/07 12:10:47;;;;;;;;;;;27.90;66.50;;;;;;7322043;19;9151;-72
2023/09/07 12:13:16;;;;;;;;;;;27.90;65.40;;;;;;7322481;19;9326;-72
2023/09/07 12:16:09;;;;;;;;;;;28.00;64.80;;;;;;7319966;19;9267;-72
2023/09/07 12:18:37;;;;;;;;;;;28.10;65.30;;;;;;7320573;19;9288;-72
2023/09/07 12:21:08;;;;;;;;;;;28.10;66.40;;;;;;7318812;19;9613;-72
2023/09/07 12:23:37;;;;;;;;;;;28.20;67.60;;;;;;7321383;19;9221;-72
2023/09/07 12:26:06;;;;;;;;;;;28.20;64.30;;;;;;7319785;19;9473;-71
2023/09/07 12:28:36;;;;;;;;;;;28.20;64.00;;;;;;7322709;19;10156;-72
2023/09/07 12:31:07;;;;;;;;;;;28.20;64.20;;;;;;7317756;19;9109;-72
2023/09/07 12:33:37;;;;;;;;;;;28.20;64.50;;;;;;7319050;19;9170;-72
2023/09/07 12:36:09;;;;;;;;;;;28.20;65.10;;;;;;7319448;19;9423;-72
2023/09/07 12:38:38;;;;;;;;;;;28.20;65.80;;;;;;7320493;19;9534;-72
2023/09/07 12:41:07;;;;;;;;;;;28.20;65.40;;;;;;7321349;19;9174;-72
2023/09/07 12:43:36;;;;;;;;;;;28.20;64.90;;;;;;7321960;19;9601;-72
2023/09/07 12:46:08;;;;;;;;;;;28.10;65.00;;;;;;7321492;19;9544;-72
2023/09/07 12:48:37;;;;;;;;;;;28.20;65.00;;;;;;7320090;19;9275;-71
2023/09/07 12:51:06;;;;;;;;;;;28.30;66.40;;;;;;7320216;19;9259;-71
2023/09/07 12:53:55;;;;;;;;;;;28.30;65.20;;;;;;7316969;19;9554;-71
2023/09/07 12:56:24;;;;;;;;;;;28.30;65.50;;;;;;7318033;19;9245;-71
2023/09/07 12:58:57;;;;;;;;;;;28.30;66.00;;;;;;7319249;19;10336;-71
2023/09/07 13:01:29;;;;;;;;;;;28.30;64.30;;;;;;7312443;19;11803;-71
2023/09/07 13:03:58;;;;;;;;;;;28.30;64.10;;;;;;7319571;19;9146;-71
2023/09/07 13:06:27;;;;;;;;;;;28.30;64.30;;;;;;7319443;19;9309;-71
2023/09/07 13:08:56;;;;;;;;;;;28.30;65.40;;;;;;7320907;19;9194;-72
2023/09/07 13:11:25;;;;;;;;;;;28.30;64.40;;;;;;7319591;19;9238;-71
2023/09/07 13:14:14;;;;;;;;;;;28.30;62.50;;;;;;7319224;19;9158;-72
2023/09/07 13:16:46;;;;;;;;;;;28.40;63.70;;;;;;7319454;19;9451;-71
2023/09/07 13:19:15;;;;;;;;;;;28.40;65.40;;;;;;7321435;19;9364;-71
2023/09/07 13:21:44;;;;;;;;;;;28.40;63.70;;;;;;7320503;19;9128;-71
2023/09/07 13:24:13;;;;;;;;;;;28.40;63.90;;;;;;7318891;19;9326;-71
2023/09/07 13:26:43;;;;;;;;;;;28.50;64.80;;;;;;7319388;19;9273;-71
2023/09/07 13:29:12;;;;;;;;;;;28.50;64.00;;;;;;7319319;19;9205;-71
2023/09/07 13:32:03;;;;;;;;;;;28.50;63.50;;;;;;7315918;19;9588;-71
2023/09/07 13:34:32;;;;;;;;;;;28.50;64.10;;;;;;7319105;19;9189;-70
2023/09/07 13:37:21;;;;;;;;;;;28.50;64.00;;;;;;7317801;19;10473;-71
2023/09/07 13:40:13;;;;;;;;;;;28.50;64.70;;;;;;7318563;19;9491;-71
2023/09/07 13:42:42;;;;;;;;;;;28.50;65.10;;;;;;7318911;19;10660;-71
2023/09/07 13:45:12;;;;;;;;;;;28.50;66.20;;;;;;7317810;19;9914;-71
2023/09/07 13:47:45;;;;;;;;;;;28.60;65.20;;;;;;7318656;19;11148;-72
2023/09/07 13:50:14;;;;;;;;;;;28.60;62.90;;;;;;7318813;19;9526;-71
2023/09/07 13:52:43;;;;;;;;;;;28.50;61.60;;;;;;7319325;19;9294;-71
2023/09/07 13:55:32;;;;;;;;;;;28.50;62.50;;;;;;7317475;19;9490;-72
2023/09/07 13:58:01;;;;;;;;;;;28.60;63.50;;;;;;7319198;19;9230;-72
2023/09/07 14:00:31;;;;;;;;;;;28.50;63.90;;;;;;7316472;19;9304;-72
2023/09/07 14:03:03;;;;;;;;;;;28.50;64.80;;;;;;7316719;19;8960;-72
2023/09/07 14:05:32;;;;;;;;;;;28.50;64.50;;;;;;7318892;19;9597;-72
2023/09/07 14:08:01;;;;;;;;;;;28.50;65.00;;;;;;7319219;19;9166;-72
2023/09/07 14:10:29;;;;;;;;;;;28.50;65.60;;;;;;7318959;19;9269;-72
2023/09/07 14:12:58;;;;;;;;;;;28.50;65.40;;;;;;7323193;19;9215;-72
2023/09/07 14:15:48;;;;;;;;;;;28.40;66.70;;;;;;7320725;19;9276;-72
2023/09/07 14:18:19;;;;;;;;;;;28.30;66.10;;;;;;7325543;19;10413;-72
2023/09/07 14:20:48;;;;;;;;;;;28.40;66.30;;;;;;7326266;19;9534;-72
2023/09/07 14:23:17;;;;;;;;;;;28.40;66.00;;;;;;7322719;19;9480;-72
2023/09/07 14:26:06;;;;;;;;;;;28.40;66.40;;;;;;7321027;19;9484;-72
2023/09/07 14:28:36;;;;;;;;;;;28.40;66.50;;;;;;7325229;19;9469;-72
2023/09/07 14:31:06;;;;;;;;;;;28.30;65.60;;;;;;7320352;19;9448;-71
2023/09/07 14:33:41;;;;;;;;;;;28.30;65.70;;;;;;7324790;19;9237;-72
2023/09/07 14:36:11;;;;;;;;;;;28.30;65.80;;;;;;7320033;19;9311;-72
2023/09/07 14:38:41;;;;;;;;;;;28.30;66.70;;;;;;7325010;19;9240;-72
2023/09/07 14:41:12;;;;;;;;;;;28.30;65.30;;;;;;7325057;19;9487;-72
2023/09/07 14:43:41;;;;;;;;;;;28.20;65.60;;;;;;7324673;19;9227;-72
2023/09/07 14:46:10;;;;;;;;;;;28.20;66.40;;;;;;7323105;19;9301;-72
2023/09/07 14:48:42;;;;;;;;;;;28.20;66.00;;;;;;7323070;19;9154;-71
2023/09/07 14:51:31;;;;;;;;;;;28.20;64.60;;;;;;7320903;19;9172;-72
2023/09/07 14:54:00;;;;;;;;;;;28.20;64.70;;;;;;7323580;19;9545;-72
2023/09/07 14:56:30;;;;;;;;;;;28.20;64.90;;;;;;7323579;19;9608;-72